Portada
METAR-TAF:

METAR-TAF

Aeroports :

Land's End, Anglaterra

latitud: 50-06-10N, longitud: 005-40-14W, altitud: 122 m

Observació

L'informe es va fer fa 39 minuts, a les 10:20 UTC
Vent 21 kt del Sud-Oest
Temperatura 9°C
Humitat 81%
Pressió 1025 hPa
Visibilitat 10 km o més
Núvols disperses a una alçada de 1300 ft
Cel ennuvolat a una alçada de 2200 ft

METAR: EGHC 211020Z 22021KT 9999 SCT013 BKN022 09/06 Q1025

Hora: 10:59 (10:59 UTC)

Pronòstic

L'informe es va fer fa 2 hores i 30 minuts, a les 08:29 UTC
Pronòstic vàlid del 21 a les 09 UTC al 21 a les 18 UTC
Vent 18 kt del Oest/Sud-Oest amb ràfegues de 28 kt
Visibilitat 10 km o més
Núvols disperses a una alçada de 2200 ft
Evolucionant progressivament
l' 21 a les 09 UTC al 21 a les 12 UTC
Vent 28 kt del Oest/Sud-Oest amb ràfegues de 38 kt

TAF: EGHC 210829Z 2109/2118 24018G28KT 9999 SCT022 BECMG 2109/2112 25028G38KT

Observacions i pronòstics meteorològics de més de 4000 aeroports (METAR i TAF).

Les estacions disponibles són els punts grocs i vermells al mapa.

Posi el ratolí al punt desitjat per veure el nom de l'estació.

Feu clic per veure les observacions i els pronòstics meteorològics.

Per canviar el mapa: feu clic els botons verds amb una creu de color negre per apropar; al botó verd amb un guió per allunyar la imatge; o en les fletxes verdes per a mapes adjacents.


METAR-TAF: